createdAt,value
2023-03-22T00:00:05.953Z,0.57
2023-03-22T00:05:31.549Z,0.57
2023-03-22T00:10:38.507Z,0.62
2023-03-22T00:15:49.380Z,0.60
2023-03-22T00:20:56.542Z,0.47
2023-03-22T00:26:01.987Z,0.33
2023-03-22T00:31:09.109Z,0.27
2023-03-22T00:36:14.884Z,0.36
2023-03-22T00:41:23.059Z,0.35
2023-03-22T00:46:28.524Z,0.31
2023-03-22T00:51:34.153Z,0.24
2023-03-22T00:56:40.221Z,0.22
2023-03-22T01:01:51.516Z,0.18
2023-03-22T01:07:03.585Z,0.23
2023-03-22T01:12:09.325Z,0.28
2023-03-22T01:17:15.192Z,0.30
2023-03-22T01:22:21.186Z,0.29
2023-03-22T01:27:26.896Z,0.23
2023-03-22T01:32:32.475Z,0.19
2023-03-22T01:37:38.089Z,0.20
2023-03-22T01:42:43.980Z,0.26
2023-03-22T01:47:59.344Z,0.24
2023-03-22T01:53:06.864Z,0.21
2023-03-22T01:58:18.000Z,0.25
2023-03-22T02:03:36.858Z,0.33
2023-03-22T02:08:42.913Z,0.43
2023-03-22T02:14:12.840Z,0.47
2023-03-22T02:20:18.442Z,0.44
2023-03-22T02:25:48.663Z,0.37
2023-03-22T02:31:31.797Z,0.34
2023-03-22T02:37:06.458Z,0.37
2023-03-22T02:42:27.607Z,0.37
2023-03-22T02:47:41.648Z,0.34
2023-03-22T02:52:52.724Z,0.27
2023-03-22T02:58:03.146Z,0.27
2023-03-22T03:03:11.691Z,0.31
2023-03-22T03:08:20.423Z,0.30
2023-03-22T03:13:26.486Z,0.26
2023-03-22T03:18:44.802Z,0.27
2023-03-22T03:23:59.349Z,0.31
2023-03-22T03:29:11.851Z,0.31
2023-03-22T03:34:23.979Z,0.27
2023-03-22T03:39:33.644Z,0.27
2023-03-22T03:44:39.953Z,0.31
2023-03-22T03:49:46.105Z,0.33
2023-03-22T03:54:51.553Z,0.29
2023-03-22T04:00:00.220Z,0.28
2023-03-22T04:05:39.079Z,0.30
2023-03-22T04:10:48.762Z,0.30
2023-03-22T04:15:58.179Z,0.27
2023-03-22T04:21:05.473Z,0.29
2023-03-22T04:26:18.812Z,0.32
2023-03-22T04:31:45.306Z,0.31
2023-03-22T04:37:02.690Z,0.31
2023-03-22T04:42:27.217Z,0.35
2023-03-22T04:47:50.440Z,0.39
2023-03-22T04:52:58.451Z,0.39
2023-03-22T04:58:04.494Z,0.40
2023-03-22T05:03:10.405Z,0.44
2023-03-22T05:08:19.956Z,0.56
2023-03-22T05:13:28.073Z,0.67
2023-03-22T05:18:34.509Z,0.76
2023-03-22T05:23:40.578Z,0.89
2023-03-22T05:28:46.501Z,1.01
2023-03-22T05:33:58.193Z,1.21
2023-03-22T05:39:06.135Z,1.43
2023-03-22T05:44:12.175Z,1.69
2023-03-22T05:49:22.098Z,1.90
2023-03-22T05:54:28.501Z,2.18
2023-03-22T05:59:34.219Z,2.50
2023-03-22T06:04:41.613Z,2.82
2023-03-22T06:09:51.935Z,3.10
2023-03-22T06:15:01.338Z,3.42
2023-03-22T06:20:12.211Z,3.86
2023-03-22T06:25:20.734Z,4.66
2023-03-22T06:30:27.389Z,5.62
2023-03-22T06:36:00.776Z,8.09
2023-03-22T06:41:11.784Z,10.42
2023-03-22T06:46:17.821Z,12.48
2023-03-22T06:51:31.866Z,14.95
2023-03-22T06:56:37.420Z,16.56
2023-03-22T07:01:42.998Z,17.82
2023-03-22T07:06:49.278Z,17.90
2023-03-22T07:11:54.967Z,17.82
2023-03-22T07:17:01.511Z,18.48
2023-03-22T07:22:08.042Z,19.55
2023-03-22T07:27:14.661Z,20.17
2023-03-22T07:32:20.779Z,19.53
2023-03-22T07:37:40.658Z,18.54
2023-03-22T07:42:55.933Z,18.03
2023-03-22T07:48:16.133Z,18.46
2023-03-22T07:53:40.541Z,19.94
2023-03-22T07:58:46.163Z,20.40
2023-03-22T08:03:51.977Z,18.90
2023-03-22T08:09:11.571Z,17.24
2023-03-22T08:14:22.201Z,16.29
2023-03-22T08:19:33.809Z,17.30
2023-03-22T08:24:39.638Z,18.53
2023-03-22T08:29:48.822Z,20.97
2023-03-22T08:34:55.324Z,22.88
2023-03-22T08:40:00.944Z,23.26
2023-03-22T08:45:18.302Z,21.93
2023-03-22T08:50:30.390Z,20.36
2023-03-22T08:55:45.735Z,18.74
2023-03-22T09:00:52.190Z,17.32
2023-03-22T09:06:10.726Z,16.49
2023-03-22T09:11:18.245Z,15.71
2023-03-22T09:16:25.199Z,15.20
2023-03-22T09:21:31.006Z,14.79
2023-03-22T09:26:46.800Z,14.34
2023-03-22T09:31:54.375Z,13.81
2023-03-22T09:37:04.257Z,13.59
2023-03-22T09:42:31.451Z,13.53
2023-03-22T09:47:45.285Z,13.56
2023-03-22T09:52:52.898Z,13.39
2023-03-22T09:58:09.452Z,13.35
2023-03-22T10:03:29.463Z,13.50
2023-03-22T10:08:56.574Z,13.97
2023-03-22T10:14:15.340Z,14.29
2023-03-22T10:19:27.121Z,14.04
2023-03-22T10:24:35.700Z,13.64
2023-03-22T10:29:44.486Z,13.29
2023-03-22T10:34:49.894Z,13.06
2023-03-22T10:39:58.768Z,12.91
2023-03-22T10:45:06.922Z,12.73
2023-03-22T10:50:18.417Z,12.58
2023-03-22T10:55:25.858Z,12.45
2023-03-22T11:00:31.510Z,12.45
2023-03-22T11:05:37.121Z,12.55
2023-03-22T11:10:49.713Z,12.62
2023-03-22T11:15:59.891Z,12.64
2023-03-22T11:21:10.511Z,12.75
2023-03-22T11:31:50.968Z,12.93
2023-03-22T11:36:59.353Z,12.92
2023-03-22T11:42:07.424Z,12.87
2023-03-22T11:47:14.904Z,12.86
2023-03-22T11:52:24.292Z,12.89
2023-03-22T11:57:34.252Z,12.78
2023-03-22T12:02:46.499Z,12.63
2023-03-22T12:07:59.304Z,12.65
2023-03-22T12:13:10.400Z,12.84
2023-03-22T12:20:47.592Z,13.08
2023-03-22T12:25:58.729Z,13.15
2023-03-22T12:31:08.580Z,13.21
2023-03-22T12:36:19.374Z,13.23
2023-03-22T12:41:31.419Z,13.33
2023-03-22T12:46:45.118Z,13.61
2023-03-22T12:51:52.280Z,13.78
2023-03-22T12:56:58.162Z,13.92
2023-03-22T13:02:12.507Z,14.14
2023-03-22T13:07:35.636Z,14.32
2023-03-22T13:12:41.229Z,14.53
2023-03-22T13:17:47.062Z,14.59
2023-03-22T13:23:09.724Z,14.62
2023-03-22T13:28:27.178Z,14.62
2023-03-22T13:33:35.389Z,14.76
2023-03-22T13:38:42.933Z,14.87
2023-03-22T13:43:50.553Z,14.88
2023-03-22T13:49:12.762Z,14.78
2023-03-22T13:54:26.309Z,14.69
2023-03-22T14:00:08.831Z,14.51
2023-03-22T14:05:22.206Z,14.26
2023-03-22T14:10:33.978Z,13.99
2023-03-22T14:15:45.266Z,13.82
2023-03-22T14:20:55.035Z,13.65
